Time;durP1;ratioP1;P1;durP2;ratioP2;P2;SDS_P1;SDS_P2;PMS_P1;PMS_P2;Temp;Humidity;BMP_temperature;BMP_pressure;BME280_temperature;BME280_humidity;BME280_pressure;Samples;Min_cycle;Max_cycle;Signal;HPM_P1;HPM_P2
2022/02/18 00:02:10;;;;;;;23.93;4.80;;;5.40;99.90;;;;;;6167387;22;20386;-80
2022/02/18 00:04:36;;;;;;;21.05;4.28;;;5.40;99.90;;;;;;6192376;22;20012;-79
2022/02/18 00:07:02;;;;;;;19.17;3.63;;;5.40;99.90;;;;;;6191508;22;20027;-79
2022/02/18 00:09:28;;;;;;;18.90;3.47;;;5.40;99.90;;;;;;6242907;22;20035;-79
2022/02/18 00:11:54;;;;;;;19.55;3.80;;;5.40;99.90;;;;;;6243340;22;20111;-79
2022/02/18 00:14:20;;;;;;;17.73;3.40;;;5.40;99.90;;;;;;6194804;22;20050;-79
2022/02/18 00:16:45;;;;;;;20.07;4.23;;;5.50;99.90;;;;;;6194878;22;20073;-80
2022/02/18 00:19:11;;;;;;;15.03;3.00;;;5.50;99.90;;;;;;6194981;22;20024;-80
2022/02/18 00:21:37;;;;;;;18.83;3.50;;;5.50;99.90;;;;;;6195588;22;20384;-80
2022/02/18 00:24:03;;;;;;;17.47;3.50;;;5.50;99.90;;;;;;6193502;22;20065;-80
2022/02/18 00:26:29;;;;;;;15.57;3.30;;;5.50;99.90;;;;;;6245613;22;20015;-80
2022/02/18 00:28:55;;;;;;;16.73;3.30;;;5.50;99.90;;;;;;6219027;22;20047;-80
2022/02/18 00:31:21;;;;;;;19.57;4.70;;;5.40;99.90;;;;;;6219771;22;20016;-80
2022/02/18 00:34:05;;;;;;;16.47;3.30;;;5.30;99.90;;;;;;6219663;22;20011;-80
2022/02/18 00:36:32;;;;;;;18.85;3.60;;;5.30;99.90;;;;;;6194671;22;20022;-80
2022/02/18 00:39:01;;;;;;;16.83;3.63;;;5.20;99.90;;;;;;6243791;22;20027;-80
2022/02/18 00:41:26;;;;;;;19.70;3.80;;;5.20;99.90;;;;;;6220078;22;20022;-80
2022/02/18 00:43:52;;;;;;;15.67;3.40;;;5.20;99.90;;;;;;6217561;22;20016;-80
2022/02/18 00:46:18;;;;;;;14.80;3.37;;;5.20;99.90;;;;;;6218930;22;20028;-80
2022/02/18 00:48:44;;;;;;;15.40;3.60;;;5.10;99.90;;;;;;6219917;22;20016;-80
2022/02/18 00:51:10;;;;;;;17.50;3.57;;;5.10;99.90;;;;;;6193642;22;20016;-80
2022/02/18 00:53:35;;;;;;;17.43;3.60;;;5.10;99.90;;;;;;6219363;22;20099;-80
2022/02/18 00:56:01;;;;;;;17.13;3.23;;;5.00;99.90;;;;;;6243845;22;20015;-80
2022/02/18 00:58:30;;;;;;;12.37;2.90;;;5.00;99.90;;;;;;6194926;22;20026;-80
2022/02/18 01:00:59;;;;;;;13.43;3.00;;;5.10;99.90;;;;;;6219049;22;20070;-80
2022/02/18 01:03:25;;;;;;;16.85;3.65;;;5.10;99.90;;;;;;6244512;22;20598;-80
2022/02/18 01:05:50;;;;;;;13.87;3.30;;;5.00;99.90;;;;;;6193983;22;20015;-80
2022/02/18 01:08:17;;;;;;;13.50;2.72;;;5.10;99.90;;;;;;6218339;22;20011;-80
2022/02/18 01:10:43;;;;;;;14.97;3.13;;;5.00;99.90;;;;;;6194508;22;20581;-80
2022/02/18 01:13:09;;;;;;;16.57;3.10;;;5.00;99.90;;;;;;6217741;22;20019;-81
2022/02/18 01:15:34;;;;;;;15.90;3.43;;;5.00;99.90;;;;;;6217806;22;20351;-83
2022/02/18 01:18:00;;;;;;;15.52;2.88;;;5.00;99.90;;;;;;6217267;22;20085;-82
2022/02/18 01:20:26;;;;;;;13.47;3.53;;;5.00;99.90;;;;;;6217922;22;20024;-82
2022/02/18 01:22:52;;;;;;;14.23;3.03;;;5.00;99.90;;;;;;6217702;22;20026;-83
2022/02/18 01:25:18;;;;;;;15.70;3.00;;;5.00;99.90;;;;;;6216815;22;20019;-83
2022/02/18 01:27:44;;;;;;;19.70;3.50;;;5.00;99.90;;;;;;6218200;22;20091;-83
2022/02/18 01:30:11;;;;;;;17.17;3.50;;;5.00;99.90;;;;;;6216950;22;20028;-82
2022/02/18 01:32:37;;;;;;;18.60;3.40;;;4.90;99.90;;;;;;6218797;22;20018;-82
2022/02/18 01:35:04;;;;;;;16.67;3.17;;;4.80;99.90;;;;;;6218102;22;20415;-82
2022/02/18 01:37:30;;;;;;;16.93;3.03;;;4.80;99.90;;;;;;6218276;22;20022;-82
2022/02/18 01:39:56;;;;;;;17.80;3.23;;;4.70;99.90;;;;;;6193338;22;20348;-82
2022/02/18 01:42:21;;;;;;;20.83;4.03;;;4.70;99.90;;;;;;6193627;22;20023;-82
2022/02/18 01:44:49;;;;;;;14.67;3.17;;;4.70;99.90;;;;;;6243280;22;20418;-83
2022/02/18 01:47:17;;;;;;;16.50;3.50;;;4.70;99.90;;;;;;6243057;22;20054;-82
2022/02/18 01:49:44;;;;;;;15.53;3.47;;;4.70;99.90;;;;;;6218020;22;20084;-82
2022/02/18 01:52:10;;;;;;;15.17;3.20;;;4.70;99.90;;;;;;6192836;22;20457;-82
2022/02/18 01:54:36;;;;;;;17.03;3.20;;;4.70;99.90;;;;;;6218049;22;20016;-83
2022/02/18 01:57:05;;;;;;;18.53;3.53;;;4.70;99.90;;;;;;6192634;22;20018;-83
2022/02/18 01:59:31;;;;;;;21.03;4.07;;;4.70;99.90;;;;;;6243263;22;20022;-83
2022/02/18 02:02:01;;;;;;;21.13;3.83;;;4.70;99.90;;;;;;6192998;22;20126;-83
2022/02/18 02:04:26;;;;;;;16.00;3.28;;;4.70;99.90;;;;;;6243863;22;20073;-81
2022/02/18 02:06:56;;;;;;;17.83;4.00;;;4.70;99.90;;;;;;6217842;22;20020;-80
2022/02/18 02:09:23;;;;;;;16.00;3.53;;;4.70;99.90;;;;;;6219083;22;20027;-80
2022/02/18 02:12:07;;;;;;;17.17;3.40;;;4.70;99.90;;;;;;6168783;22;20027;-80
2022/02/18 02:14:33;;;;;;;20.23;3.70;;;4.70;99.90;;;;;;6244117;22;20012;-80
2022/02/18 02:16:59;;;;;;;19.80;3.97;;;4.70;99.90;;;;;;6218847;22;20365;-80
2022/02/18 02:19:25;;;;;;;19.60;3.50;;;4.70;99.90;;;;;;6168507;22;20019;-80
2022/02/18 02:21:56;;;;;;;19.52;3.58;;;4.60;99.90;;;;;;6192819;22;20019;-80
2022/02/18 02:24:21;;;;;;;15.48;3.50;;;4.60;99.90;;;;;;6242935;22;20436;-80
2022/02/18 02:26:47;;;;;;;15.93;4.13;;;4.60;99.90;;;;;;6218103;22;20161;-80
2022/02/18 02:29:14;;;;;;;18.57;3.27;;;4.60;99.90;;;;;;6242648;22;20023;-80
2022/02/18 02:31:41;;;;;;;16.27;3.00;;;4.60;99.90;;;;;;6218009;22;20051;-80
2022/02/18 02:34:08;;;;;;;14.67;3.17;;;4.60;99.90;;;;;;6243135;22;20019;-80
2022/02/18 02:36:35;;;;;;;15.77;3.63;;;4.60;99.90;;;;;;6217465;22;20020;-80
2022/02/18 02:39:02;;;;;;;16.53;2.90;;;4.70;99.90;;;;;;6217016;22;20047;-80
2022/02/18 02:41:28;;;;;;;13.93;2.83;;;4.70;99.90;;;;;;6217767;22;20016;-80
2022/02/18 02:43:54;;;;;;;16.07;3.10;;;4.70;99.90;;;;;;6217622;22;20150;-80
2022/02/18 02:46:20;;;;;;;11.33;2.40;;;4.70;99.90;;;;;;6215002;22;20059;-80
2022/02/18 02:48:46;;;;;;;10.77;2.50;;;4.70;99.90;;;;;;6193136;22;20019;-80
2022/02/18 02:51:12;;;;;;;9.63;1.83;;;4.70;99.90;;;;;;6192347;22;20051;-80
2022/02/18 02:53:39;;;;;;;13.37;2.40;;;4.80;99.90;;;;;;6243240;22;20023;-80
2022/02/18 02:56:06;;;;;;;14.73;2.50;;;4.80;99.90;;;;;;6217263;22;20428;-80
2022/02/18 02:58:32;;;;;;;11.75;2.60;;;4.80;99.90;;;;;;6242491;22;20019;-79
2022/02/18 03:01:01;;;;;;;14.37;2.53;;;4.80;99.90;;;;;;6215773;22;20086;-79
2022/02/18 03:03:30;;;;;;;11.52;2.00;;;4.80;99.90;;;;;;6217533;22;20069;-80
2022/02/18 03:05:55;;;;;;;13.27;2.30;;;4.80;99.90;;;;;;6165617;22;20099;-79
2022/02/18 03:08:21;;;;;;;12.93;3.10;;;4.90;99.90;;;;;;6166868;22;20043;-80
2022/02/18 03:11:14;;;;;;;11.80;2.70;;;4.80;99.90;;;;;;6192715;22;20015;-80
2022/02/18 03:13:33;;;;;;;9.18;2.45;;;4.90;99.90;;;;;;6242668;22;20103;-81
2022/02/18 03:15:59;;;;;;;9.50;2.40;;;4.90;99.90;;;;;;6241950;22;20113;-80
2022/02/18 03:18:24;;;;;;;13.93;2.43;;;4.90;99.90;;;;;;6217054;22;20027;-80
2022/02/18 03:20:50;;;;;;;11.93;2.58;;;4.90;99.90;;;;;;6192190;22;20023;-80
2022/02/18 03:23:16;;;;;;;10.77;3.00;;;4.90;99.90;;;;;;6217114;22;20130;-80
2022/02/18 03:25:42;;;;;;;12.13;2.30;;;4.90;99.90;;;;;;6192166;22;20012;-80
2022/02/18 03:28:08;;;;;;;12.77;2.27;;;4.90;99.90;;;;;;6217344;22;20050;-80
2022/02/18 03:30:34;;;;;;;9.97;2.33;;;4.90;99.90;;;;;;6216646;22;20318;-80
2022/02/18 03:33:00;;;;;;;12.50;2.43;;;4.90;99.90;;;;;;6217333;22;20070;-80
2022/02/18 03:35:26;;;;;;;13.60;2.53;;;5.00;99.90;;;;;;6243218;22;20026;-80
2022/02/18 03:37:52;;;;;;;10.60;2.85;;;5.00;99.90;;;;;;6216854;22;20012;-81
2022/02/18 03:40:18;;;;;;;14.10;2.60;;;5.00;99.90;;;;;;6218405;22;20023;-81
2022/02/18 03:42:44;;;;;;;11.70;2.67;;;5.00;99.90;;;;;;6218240;22;20102;-80
2022/02/18 03:45:10;;;;;;;12.85;2.80;;;5.00;99.90;;;;;;6217495;22;20020;-81
2022/02/18 03:47:35;;;;;;;10.20;2.42;;;5.00;99.90;;;;;;6191303;22;20491;-80
2022/02/18 03:50:01;;;;;;;12.00;2.72;;;5.10;99.90;;;;;;6242593;22;20062;-81
2022/02/18 03:52:30;;;;;;;9.15;2.47;;;5.10;99.90;;;;;;6244817;22;20026;-81
2022/02/18 03:54:56;;;;;;;12.53;2.97;;;5.20;99.90;;;;;;6219515;22;20012;-81
2022/02/18 03:57:22;;;;;;;15.67;2.80;;;5.20;99.90;;;;;;6244362;22;20492;-81
2022/02/18 03:59:48;;;;;;;18.97;3.27;;;5.20;99.90;;;;;;6243885;22;20016;-80
2022/02/18 04:02:15;;;;;;;11.82;2.60;;;5.20;99.90;;;;;;6218908;22;20027;-80
2022/02/18 04:04:41;;;;;;;10.60;2.85;;;5.20;99.90;;;;;;6192953;22;20345;-80
2022/02/18 04:07:07;;;;;;;12.80;3.25;;;5.30;99.90;;;;;;6217955;22;20019;-81
2022/02/18 04:09:33;;;;;;;11.52;2.58;;;5.30;99.90;;;;;;6219069;22;20020;-81
2022/02/18 04:11:59;;;;;;;14.80;3.47;;;5.30;99.90;;;;;;6219169;22;20016;-81
2022/02/18 04:14:25;;;;;;;14.40;2.83;;;5.30;99.90;;;;;;6243518;22;20018;-81
2022/02/18 04:16:51;;;;;;;12.20;3.33;;;5.30;99.90;;;;;;6194381;22;20020;-80
2022/02/18 04:19:16;;;;;;;11.65;3.05;;;5.30;99.90;;;;;;6244198;22;20039;-81
2022/02/18 04:21:43;;;;;;;11.30;3.00;;;5.40;99.90;;;;;;6219086;22;20630;-81
2022/02/18 04:24:09;;;;;;;13.00;3.22;;;5.40;99.90;;;;;;6218997;22;20023;-81
2022/02/18 04:26:35;;;;;;;17.20;3.85;;;5.40;99.90;;;;;;6219317;22;20025;-81
2022/02/18 04:29:01;;;;;;;18.08;3.83;;;5.40;99.90;;;;;;6193781;22;20016;-81
2022/02/18 04:31:27;;;;;;;12.10;3.30;;;5.50;99.90;;;;;;6219383;22;20019;-81
2022/02/18 04:33:53;;;;;;;13.40;3.17;;;5.50;99.90;;;;;;6168052;22;20480;-80
2022/02/18 04:36:19;;;;;;;18.58;3.72;;;5.50;99.90;;;;;;6219195;22;20024;-80
2022/02/18 04:38:45;;;;;;;15.48;3.70;;;5.50;99.90;;;;;;6243161;22;20020;-81
2022/02/18 04:41:10;;;;;;;14.52;4.50;;;5.50;99.90;;;;;;6193500;22;20475;-81
2022/02/18 04:43:36;;;;;;;18.15;4.35;;;5.50;99.90;;;;;;6243773;22;20030;-81
2022/02/18 04:46:02;;;;;;;15.53;4.47;;;5.50;99.90;;;;;;6218283;22;20027;-81
2022/02/18 04:48:28;;;;;;;17.42;5.53;;;5.50;99.90;;;;;;6219096;22;20139;-80
2022/02/18 04:50:54;;;;;;;20.67;4.70;;;5.50;99.90;;;;;;6243843;22;20337;-80
2022/02/18 04:53:20;;;;;;;23.77;5.65;;;5.50;99.90;;;;;;6194392;22;20015;-81
2022/02/18 04:55:46;;;;;;;18.60;6.00;;;5.50;99.90;;;;;;6242743;22;20011;-80
2022/02/18 04:58:11;;;;;;;22.05;5.50;;;5.50;99.90;;;;;;6243371;22;20018;-81
2022/02/18 05:00:37;;;;;;;17.65;5.10;;;5.70;99.90;;;;;;6216831;22;20371;-81
2022/02/18 05:03:03;;;;;;;22.23;5.60;;;5.60;99.90;;;;;;6243010;22;20069;-80
2022/02/18 05:05:29;;;;;;;22.88;5.53;;;5.60;99.90;;;;;;6218581;22;20352;-80
2022/02/18 05:07:55;;;;;;;19.65;5.95;;;5.60;99.90;;;;;;6192507;22;20228;-81
2022/02/18 05:10:21;;;;;;;19.25;6.10;;;5.70;99.90;;;;;;6193606;22;20068;-81
2022/02/18 05:12:46;;;;;;;25.73;7.45;;;5.80;99.90;;;;;;6194522;22;20047;-80
2022/02/18 05:15:12;;;;;;;28.80;7.13;;;5.80;99.90;;;;;;6169938;22;20192;-81
2022/02/18 05:17:38;;;;;;;20.17;6.07;;;5.80;99.90;;;;;;6220353;22;20028;-81
2022/02/18 05:20:05;;;;;;;20.73;6.30;;;5.80;99.90;;;;;;6169068;22;20012;-81
2022/02/18 05:22:30;;;;;;;20.98;5.85;;;5.90;99.90;;;;;;6219647;22;20162;-80
2022/02/18 05:24:56;;;;;;;24.17;6.95;;;5.80;99.90;;;;;;6218935;22;20091;-81
2022/02/18 05:27:22;;;;;;;29.83;7.30;;;5.80;99.90;;;;;;6244890;22;20384;-81
2022/02/18 05:29:48;;;;;;;25.77;6.47;;;5.80;99.90;;;;;;6169335;22;20110;-81
2022/02/18 05:32:14;;;;;;;27.33;6.88;;;5.90;99.90;;;;;;6218905;22;20067;-81
2022/02/18 05:34:40;;;;;;;25.48;6.68;;;5.90;99.90;;;;;;6218300;22;20091;-82
2022/02/18 05:37:05;;;;;;;32.58;7.03;;;5.90;99.90;;;;;;6192374;22;20445;-81
2022/02/18 05:39:31;;;;;;;21.13;5.70;;;5.90;99.90;;;;;;6243691;22;20427;-80
2022/02/18 05:41:57;;;;;;;23.55;6.85;;;5.80;99.90;;;;;;6242904;22;20435;-81
2022/02/18 05:44:30;;;;;;;28.27;6.50;;;5.90;99.90;;;;;;6192498;22;20016;-81
2022/02/18 05:46:58;;;;;;;26.38;6.85;;;5.80;99.90;;;;;;6194344;22;20468;-80
2022/02/18 05:49:23;;;;;;;25.25;7.35;;;5.80;99.90;;;;;;6193729;22;20015;-80
2022/02/18 05:51:49;;;;;;;28.58;6.65;;;5.80;99.90;;;;;;6192842;22;20491;-80
2022/02/18 05:54:15;;;;;;;21.80;6.85;;;5.80;99.90;;;;;;6193060;22;20165;-80
2022/02/18 05:56:41;;;;;;;29.05;7.07;;;5.80;99.90;;;;;;6242518;22;20027;-80
2022/02/18 05:59:06;;;;;;;26.08;6.88;;;5.80;99.90;;;;;;6243186;22;20722;-81
2022/02/18 06:01:32;;;;;;;29.30;7.50;;;5.80;99.90;;;;;;6192412;22;20113;-81
2022/02/18 06:04:01;;;;;;;28.48;6.90;;;5.70;99.90;;;;;;6167427;22;20464;-81
2022/02/18 06:06:27;;;;;;;27.48;7.30;;;5.80;99.90;;;;;;6243822;22;20019;-81
2022/02/18 06:08:53;;;;;;;27.08;6.75;;;5.80;99.90;;;;;;6217897;22;20012;-81
2022/02/18 06:11:19;;;;;;;24.02;7.03;;;5.80;99.90;;;;;;6242696;22;20054;-81
2022/02/18 06:13:45;;;;;;;24.80;7.13;;;5.80;99.90;;;;;;6193168;22;20019;-80
2022/02/18 06:16:10;;;;;;;30.60;8.00;;;5.70;99.90;;;;;;6217579;22;20456;-80
2022/02/18 06:18:36;;;;;;;20.67;6.63;;;5.70;99.90;;;;;;6192860;22;20047;-80
2022/02/18 06:21:03;;;;;;;24.45;7.32;;;5.70;99.90;;;;;;6192432;22;20339;-80
2022/02/18 06:23:29;;;;;;;29.02;7.28;;;5.70;99.90;;;;;;6193538;22;20030;-81
2022/02/18 06:25:55;;;;;;;26.57;7.27;;;5.70;99.90;;;;;;6192701;22;20388;-80
2022/02/18 06:28:21;;;;;;;25.55;8.40;;;5.60;99.90;;;;;;6193015;22;20016;-80
2022/02/18 06:30:46;;;;;;;28.40;7.72;;;5.60;99.90;;;;;;6243009;22;20026;-80
2022/02/18 06:33:12;;;;;;;36.30;9.68;;;5.70;99.90;;;;;;6243101;22;20027;-80
2022/02/18 06:35:43;;;;;;;28.23;10.00;;;5.70;99.90;;;;;;6218307;22;20028;-81
2022/02/18 06:38:09;;;;;;;30.65;10.75;;;5.60;99.90;;;;;;6242735;22;20349;-81
2022/02/18 06:40:36;;;;;;;34.33;11.13;;;5.70;99.90;;;;;;6193228;22;20011;-80
2022/02/18 06:43:02;;;;;;;30.52;12.57;;;5.70;99.90;;;;;;6243394;22;20020;-81
2022/02/18 06:45:28;;;;;;;39.55;12.60;;;5.70;99.90;;;;;;6217955;22;20023;-81
2022/02/18 06:47:54;;;;;;;30.42;13.27;;;5.70;99.90;;;;;;6218282;22;20098;-81
2022/02/18 06:50:21;;;;;;;30.63;13.35;;;5.70;99.90;;;;;;6219445;22;20019;-80
2022/02/18 06:52:50;;;;;;;33.83;14.35;;;5.80;99.90;;;;;;6244050;22;20020;-81
2022/02/18 06:55:22;;;;;;;30.70;14.23;;;5.80;99.90;;;;;;6244273;22;20049;-80
2022/02/18 06:57:47;;;;;;;32.97;13.80;;;5.80;99.90;;;;;;6219436;22;20020;-80
2022/02/18 07:00:15;;;;;;;34.42;15.68;;;5.80;99.90;;;;;;6218118;22;20464;-80
2022/02/18 07:02:42;;;;;;;37.40;15.50;;;5.90;99.90;;;;;;6242669;22;20055;-80
2022/02/18 07:05:09;;;;;;;38.65;15.60;;;6.00;99.90;;;;;;6217321;22;20012;-81
2022/02/18 07:07:35;;;;;;;40.50;16.23;;;6.00;99.90;;;;;;6243647;22;20069;-81
2022/02/18 07:10:06;;;;;;;39.85;14.63;;;5.90;99.90;;;;;;6191787;22;20098;-80
2022/02/18 07:12:33;;;;;;;34.60;14.48;;;6.00;99.90;;;;;;6242559;22;20023;-81
2022/02/18 07:14:59;;;;;;;42.28;15.45;;;6.00;99.90;;;;;;6216963;22;20082;-81
2022/02/18 07:17:27;;;;;;;41.28;14.70;;;6.00;99.90;;;;;;6218253;22;20487;-81
2022/02/18 07:19:54;;;;;;;36.45;14.10;;;6.10;99.90;;;;;;6242564;22;20052;-81
2022/02/18 07:22:20;;;;;;;38.03;15.15;;;6.10;99.90;;;;;;6167682;22;20023;-81
2022/02/18 07:24:47;;;;;;;42.70;14.55;;;6.10;99.90;;;;;;6217077;22;20465;-81
2022/02/18 07:27:14;;;;;;;33.13;12.68;;;6.20;99.90;;;;;;6242119;22;20444;-81
2022/02/18 07:29:40;;;;;;;38.03;13.43;;;6.30;99.90;;;;;;6243027;22;20016;-80
2022/02/18 07:32:07;;;;;;;40.95;12.05;;;6.20;99.90;;;;;;6242668;22;20210;-80
2022/02/18 07:34:33;;;;;;;34.70;11.93;;;6.20;99.90;;;;;;6241825;22;20012;-79
2022/02/18 07:36:59;;;;;;;35.85;11.05;;;6.20;99.90;;;;;;6216407;22;20438;-81
2022/02/18 07:39:25;;;;;;;37.03;10.52;;;6.30;99.90;;;;;;6193127;22;20046;-81
2022/02/18 07:41:51;;;;;;;32.30;11.23;;;6.30;99.90;;;;;;6242046;22;20069;-80
2022/02/18 07:44:18;;;;;;;33.00;10.77;;;6.30;99.90;;;;;;6192224;22;20998;-80
2022/02/18 07:46:44;;;;;;;34.50;9.43;;;6.30;99.90;;;;;;6216593;22;20115;-81
2022/02/18 07:49:10;;;;;;;38.65;10.95;;;6.40;99.90;;;;;;6216686;22;20020;-80
2022/02/18 07:51:37;;;;;;;35.70;9.77;;;6.40;99.90;;;;;;6240444;22;20015;-80
2022/02/18 07:54:04;;;;;;;32.58;9.20;;;6.40;99.90;;;;;;6215448;22;20016;-80
2022/02/18 07:56:30;;;;;;;41.63;9.30;;;6.40;99.90;;;;;;6216078;22;20077;-81
2022/02/18 07:58:56;;;;;;;38.15;8.43;;;6.50;99.90;;;;;;6216167;22;20384;-80
2022/02/18 08:01:22;;;;;;;35.33;9.43;;;6.50;99.90;;;;;;6191395;22;20514;-81
2022/02/18 08:03:50;;;;;;;33.33;9.65;;;6.50;99.90;;;;;;6217572;22;20053;-77
2022/02/18 08:06:17;;;;;;;39.80;9.43;;;6.50;99.90;;;;;;6240804;22;20113;-81
2022/02/18 08:08:44;;;;;;;42.17;9.07;;;6.40;99.90;;;;;;6215822;22;20459;-81
2022/02/18 08:11:14;;;;;;;34.08;9.07;;;6.50;99.90;;;;;;6214625;22;20023;-81
2022/02/18 08:13:40;;;;;;;;;;;6.50;99.90;;;;;;6215716;22;20019;-81
2022/02/18 08:16:09;;;;;;;35.70;9.38;;;6.50;99.90;;;;;;6240709;22;19926;-80
2022/02/18 08:18:37;;;;;;;34.00;8.90;;;6.50;99.90;;;;;;6217742;22;20051;-80
2022/02/18 08:21:03;;;;;;;40.20;9.10;;;6.50;99.90;;;;;;6241073;22;20094;-80
2022/02/18 08:23:29;;;;;;;36.90;8.13;;;6.50;99.90;;;;;;6241953;22;20475;-80
2022/02/18 08:25:55;;;;;;;41.50;9.57;;;6.60;99.90;;;;;;6216821;22;20020;-80
2022/02/18 08:28:21;;;;;;;33.40;8.70;;;6.60;99.90;;;;;;6216214;22;20022;-80
2022/02/18 08:30:50;;;;;;;39.38;9.45;;;6.60;99.90;;;;;;6216470;22;20016;-81
2022/02/18 08:33:15;;;;;;;38.92;9.30;;;6.60;99.90;;;;;;6241628;22;20016;-80
2022/02/18 08:35:45;;;;;;;43.22;10.57;;;6.60;99.90;;;;;;6190955;22;20030;-80
2022/02/18 08:38:10;;;;;;;39.63;10.93;;;6.60;99.90;;;;;;6191022;22;20106;-82
2022/02/18 08:40:36;;;;;;;34.42;9.82;;;6.60;99.90;;;;;;6215084;22;20047;-81
2022/02/18 08:43:03;;;;;;;35.15;10.05;;;6.60;99.90;;;;;;6237066;22;20023;-80
2022/02/18 08:45:30;;;;;;;33.08;10.20;;;6.60;99.90;;;;;;6214162;22;20049;-81
2022/02/18 08:47:57;;;;;;;36.30;11.10;;;6.70;99.90;;;;;;6213699;22;20022;-80
2022/02/18 08:50:26;;;;;;;30.27;11.07;;;6.70;99.90;;;;;;6189817;22;20015;-80
2022/02/18 08:52:52;;;;;;;30.88;11.48;;;6.70;99.90;;;;;;6165313;22;20361;-80
2022/02/18 08:55:22;;;;;;;30.88;11.48;;;6.70;99.90;;;;;;6238934;22;20024;-81
2022/02/18 08:57:49;;;;;;;33.83;12.05;;;6.80;99.90;;;;;;6187516;22;20582;-80
2022/02/18 09:00:17;;;;;;;30.70;11.55;;;6.70;99.90;;;;;;6186420;22;20310;-81
2022/02/18 09:02:43;;;;;;;26.75;13.75;;;6.80;99.90;;;;;;6240969;22;20768;-81
2022/02/18 09:05:10;;;;;;;31.92;12.40;;;6.80;99.90;;;;;;6212190;22;20574;-82
2022/02/18 09:07:36;;;;;;;31.30;12.57;;;6.80;99.90;;;;;;6212354;22;20418;-80
2022/02/18 09:10:06;;;;;;;30.63;14.38;;;6.90;99.90;;;;;;6185268;22;20341;-80
2022/02/18 09:12:37;;;;;;;26.48;12.52;;;6.90;99.90;;;;;;6239901;22;20462;-81
2022/02/18 09:15:05;;;;;;;28.35;14.10;;;7.00;99.90;;;;;;6213762;22;20463;-81
2022/02/18 09:17:31;;;;;;;28.38;12.52;;;7.00;99.90;;;;;;6214958;22;20055;-80
2022/02/18 09:19:58;;;;;;;25.83;14.43;;;7.00;99.90;;;;;;6214759;22;20022;-80
2022/02/18 09:22:25;;;;;;;19.73;11.35;;;7.00;99.90;;;;;;6210701;22;20012;-80
2022/02/18 09:24:51;;;;;;;23.98;12.40;;;7.10;99.90;;;;;;6211970;22;20395;-82
2022/02/18 09:27:20;;;;;;;19.42;10.85;;;7.20;99.90;;;;;;6241318;22;20282;-81
2022/02/18 09:29:46;;;;;;;24.25;11.15;;;7.20;99.90;;;;;;6217446;22;20018;-81
2022/02/18 09:32:14;;;;;;;20.90;10.65;;;7.20;99.90;;;;;;6216398;22;20024;-81
2022/02/18 09:34:40;;;;;;;17.55;10.25;;;7.30;99.90;;;;;;6242913;22;20015;-81
2022/02/18 09:37:06;;;;;;;20.00;10.27;;;7.40;99.90;;;;;;6240650;22;20088;-80
2022/02/18 09:39:32;;;;;;;24.95;10.73;;;7.40;99.90;;;;;;6192671;22;20011;-81
2022/02/18 09:41:58;;;;;;;22.48;10.57;;;7.50;99.90;;;;;;6216441;22;20081;-82
2022/02/18 09:44:25;;;;;;;18.05;10.70;;;7.50;99.90;;;;;;6241778;22;20024;-80
2022/02/18 09:46:52;;;;;;;19.67;10.88;;;7.60;99.90;;;;;;6211663;23;20058;-81
2022/02/18 09:49:18;;;;;;;24.98;12.15;;;7.60;99.90;;;;;;6212323;23;20070;-80
2022/02/18 09:51:45;;;;;;;20.95;11.27;;;7.70;99.90;;;;;;6211601;23;20103;-82
2022/02/18 09:54:11;;;;;;;19.08;11.55;;;7.80;99.90;;;;;;6210895;23;20016;-79
2022/02/18 09:56:42;;;;;;;20.35;11.00;;;7.90;99.90;;;;;;6236460;23;20027;-82
2022/02/18 09:59:10;;;;;;;22.25;11.20;;;8.00;99.90;;;;;;6212340;23;20020;-81
2022/02/18 10:01:36;;;;;;;16.33;10.02;;;8.10;99.90;;;;;;6186858;23;20023;-82
2022/02/18 10:04:02;;;;;;;21.58;11.43;;;8.10;99.90;;;;;;6211078;23;20457;-81
2022/02/18 10:06:29;;;;;;;20.42;10.63;;;8.20;99.90;;;;;;6212288;23;20070;-81
2022/02/18 10:08:55;;;;;;;17.58;10.18;;;8.30;99.90;;;;;;6210653;23;20023;-81
2022/02/18 10:11:22;;;;;;;18.30;10.13;;;8.30;99.90;;;;;;6183050;23;20356;-80
2022/02/18 10:13:48;;;;;;;16.65;10.10;;;8.30;99.90;;;;;;6208626;23;20708;-79
2022/02/18 10:16:17;;;;;;;19.52;9.57;;;8.40;99.90;;;;;;6209523;23;20510;-80
2022/02/18 10:18:53;;;;;;;14.38;8.77;;;8.50;99.90;;;;;;6235812;23;20522;-79
2022/02/18 10:21:24;;;;;;;14.50;9.02;;;8.60;99.90;;;;;;6210592;23;20024;-81
2022/02/18 10:23:52;;;;;;;15.48;9.25;;;8.70;99.90;;;;;;6233537;23;20039;-79
2022/02/18 10:26:34;;;;;;;17.50;9.82;;;8.80;99.90;;;;;;6210044;23;20217;-83
2022/02/18 10:29:00;;;;;;;17.92;10.65;;;8.90;99.90;;;;;;6209634;23;20510;-81
2022/02/18 10:31:28;;;;;;;16.67;10.35;;;8.90;99.90;;;;;;6210234;23;20449;-81
2022/02/18 10:34:08;;;;;;;18.92;10.68;;;8.90;99.90;;;;;;6212481;23;20393;-81
2022/02/18 10:36:45;;;;;;;21.85;10.50;;;9.00;99.90;;;;;;6237231;23;20016;-81
2022/02/18 10:39:28;;;;;;;17.92;10.02;;;9.00;99.90;;;;;;6186206;23;20073;-80
2022/02/18 10:42:00;;;;;;;15.60;9.95;;;9.10;99.90;;;;;;6237042;23;20030;-80
2022/02/18 10:44:33;;;;;;;19.20;9.95;;;9.20;99.90;;;;;;6211217;23;20017;-79
2022/02/18 10:47:05;;;;;;;16.48;9.32;;;9.20;99.90;;;;;;6235175;23;20016;-79
2022/02/18 10:49:34;;;;;;;15.10;10.23;;;9.20;99.90;;;;;;6211933;23;20020;-80
2022/02/18 10:52:06;;;;;;;19.20;9.90;;;9.30;99.90;;;;;;6235211;23;20051;-78
2022/02/18 10:54:33;;;;;;;17.67;10.23;;;9.30;99.90;;;;;;6236746;23;20016;-77
2022/02/18 10:57:24;;;;;;;21.08;10.48;;;9.40;99.90;;;;;;6211698;23;20072;-79
2022/02/18 10:59:51;;;;;;;16.05;9.70;;;9.40;99.90;;;;;;6211421;23;20455;-79
2022/02/18 11:02:39;;;;;;;14.80;9.93;;;9.40;99.90;;;;;;6207813;23;20082;-81
2022/02/18 11:05:21;;;;;;;16.58;10.18;;;9.40;99.90;;;;;;6234328;23;20096;-78
2022/02/18 11:07:46;;;;;;;18.10;10.82;;;9.50;99.90;;;;;;6209960;23;20062;-79
2022/02/18 11:10:32;;;;;;;17.13;11.27;;;9.50;99.90;;;;;;6208052;23;20016;-80
2022/02/18 11:12:58;;;;;;;17.60;10.27;;;9.50;99.90;;;;;;6183830;23;20027;-78
2022/02/18 11:15:26;;;;;;;16.50;11.23;;;9.60;99.90;;;;;;6184389;23;20496;-79
2022/02/18 11:17:53;;;;;;;16.55;11.20;;;9.60;99.90;;;;;;6209558;23;20020;-79
2022/02/18 11:20:20;;;;;;;18.83;10.95;;;9.60;99.90;;;;;;6207627;23;20016;-78
2022/02/18 11:22:46;;;;;;;18.50;11.23;;;9.60;99.90;;;;;;6211611;23;20534;-79
2022/02/18 11:25:12;;;;;;;16.90;11.00;;;9.70;99.90;;;;;;6236397;23;20445;-81
2022/02/18 11:27:38;;;;;;;18.92;11.82;;;9.70;99.90;;;;;;6187485;23;20024;-79
2022/02/18 11:30:05;;;;;;;13.07;10.80;;;9.80;99.90;;;;;;6186937;23;20063;-81
2022/02/18 11:32:40;;;;;;;13.20;10.52;;;9.80;99.90;;;;;;6212981;23;20023;-78
2022/02/18 11:35:47;;;;;;;17.67;11.38;;;9.90;99.90;;;;;;6211550;23;20016;-78
2022/02/18 11:38:34;;;;;;;15.32;9.82;;;10.00;99.90;;;;;;6119139;23;20017;-79
2022/02/18 11:41:11;;;;;;;14.73;9.48;;;10.00;99.90;;;;;;6094465;23;20017;-77
2022/02/18 11:43:46;;;;;;;13.75;8.38;;;10.00;99.90;;;;;;6202752;23;20441;-79
2022/02/18 11:46:25;;;;;;;12.35;8.30;;;10.00;99.90;;;;;;6234090;23;20074;-79
2022/02/18 11:48:53;;;;;;;9.75;8.75;;;10.10;99.90;;;;;;6234142;23;20091;-78
2022/02/18 11:51:23;;;;;;;12.93;7.93;;;10.20;99.90;;;;;;6208487;23;20024;-79
2022/02/18 11:53:50;;;;;;;11.52;8.40;;;10.20;99.90;;;;;;6208424;23;20020;-76
2022/02/18 11:56:40;;;;;;;9.30;7.05;;;10.30;99.90;;;;;;6234356;23;20413;-78
2022/02/18 11:59:06;;;;;;;7.45;6.30;;;10.30;99.90;;;;;;6236032;23;20505;-79
2022/02/18 12:01:59;;;;;;;8.88;6.65;;;10.30;99.90;;;;;;6237082;23;20024;-79
2022/02/18 12:04:25;;;;;;;11.88;6.88;;;10.40;99.90;;;;;;6236443;23;20020;-76
2022/02/18 12:07:13;;;;;;;6.75;5.40;;;10.50;99.90;;;;;;6209636;23;20074;-78
2022/02/18 12:09:48;;;;;;;8.07;5.47;;;10.50;99.90;;;;;;6236959;23;20077;-79
2022/02/18 12:12:26;;;;;;;7.80;5.28;;;10.60;99.90;;;;;;6213417;23;20071;-79
2022/02/18 12:14:55;;;;;;;8.23;5.20;;;10.60;99.90;;;;;;6214269;23;20437;-78
2022/02/18 12:17:24;;;;;;;11.32;5.70;;;10.70;99.90;;;;;;6214010;23;20047;-77
2022/02/18 12:19:50;;;;;;;6.95;4.97;;;10.70;99.90;;;;;;6238940;23;20022;-77
2022/02/18 12:22:40;;;;;;;5.72;4.93;;;10.80;99.90;;;;;;6213596;23;20236;-77
2022/02/18 12:25:30;;;;;;;8.15;5.10;;;10.80;99.90;;;;;;6238392;23;20056;-78
2022/02/18 12:28:16;;;;;;;;;;;10.80;99.90;;;;;;6236580;23;20465;-77
2022/02/18 12:30:42;;;;;;;5.72;4.65;;;10.80;99.90;;;;;;6237829;23;20340;-78
2022/02/18 12:33:09;;;;;;;7.53;4.55;;;10.90;99.90;;;;;;6238957;23;20399;-77
2022/02/18 12:35:36;;;;;;;4.72;3.58;;;10.90;99.90;;;;;;6213217;23;20084;-76
2022/02/18 12:38:07;;;;;;;6.18;3.80;;;10.90;99.90;;;;;;6212597;23;20054;-73
2022/02/18 12:40:35;;;;;;;9.38;3.90;;;11.00;99.90;;;;;;6238972;23;20081;-77
2022/02/18 12:43:12;;;;;;;5.35;3.40;;;11.00;99.90;;;;;;6236501;23;20016;-80
2022/02/18 12:45:53;;;;;;;4.88;3.50;;;11.00;99.90;;;;;;6211231;23;20020;-77
2022/02/18 12:48:34;;;;;;;3.72;3.00;;;11.10;99.90;;;;;;6234602;23;20020;-79
2022/02/18 12:51:06;;;;;;;4.25;3.20;;;11.10;99.90;;;;;;6238181;23;20094;-79